Forside
METAR-TAF:

METAR-TAF

Lufthavne :

Saga, Japan

Breddekreds: 33-09N, længdekreds: 130-18E, højde: 2 m

Aktuelle vejr

Denne rapport blev lavet for 4 timer og 36 minutter siden, kl. 14:00 UTC
Vind 4 kt fra nordvest
Temperatur 10°C
Fugtighed 82%
Tryk 1019 hPa
Sigt 10 km eller mere
ingen skyer under 1500m og ingen cumulonimbus

METAR: RJFS 031400Z 31004KT CAVOK 10/07 Q1019

Tid: 03:36 (18:36 UTC)

Vejrudsigter

Denne rapport blev lavet for 1 time og 31 minutter siden, kl. 17:05 UTC
Foreløbig gælder fra 03 på 18 UTC til 05 på 00 UTC
Vind 6 kt fra vest
Sigt 10 km eller mere
Nogle få skyer i en højde af 4000 ft

TAF: RJFS 031705Z 0318/0500 27006KT 9999 FEW040

Vejrobservationer og prognoser fra mere end 4000 lufthavne (METAR og TAF).

De gule og røde prikker repræsenterer de meteorologiske stationer.

Flyt musen over at se navnet på stationen.

Så klik over at se vejr observationer og prognoser.

At skifte det kort: Klik på de grønne knapper med et sort kors for at zoome ind; på den grønne knap med en bindestreg for at zoome ud; eller på de grønne pile for tilstødende kort.


METAR-TAF: